createdAt,value
2022-12-15T00:00:51.164Z,91.84
2022-12-15T00:03:47.300Z,91.83
2022-12-15T00:06:34.616Z,92.19
2022-12-15T00:09:27.715Z,92.29
2022-12-15T00:12:18.683Z,92.13
2022-12-15T00:15:05.991Z,92.45
2022-12-15T00:17:53.070Z,92.18
2022-12-15T00:20:40.180Z,92.18
2022-12-15T00:23:32.077Z,92.00
2022-12-15T00:26:19.719Z,92.25
2022-12-15T00:29:06.829Z,92.59
2022-12-15T00:31:54.259Z,92.77
2022-12-15T00:34:41.557Z,92.94
2022-12-15T00:37:28.820Z,92.95
2022-12-15T00:40:00.223Z,92.96
2022-12-15T00:42:28.887Z,92.97
2022-12-15T00:44:57.909Z,93.46
2022-12-15T00:47:26.487Z,93.68
2022-12-15T00:50:24.236Z,94.18
2022-12-15T00:53:11.220Z,94.16
2022-12-15T00:55:58.636Z,94.44
2022-12-15T00:58:46.126Z,94.40
2022-12-15T01:01:33.189Z,94.61
2022-12-15T01:04:20.373Z,94.79
2022-12-15T01:07:07.842Z,95.11
2022-12-15T01:09:55.193Z,95.23
2022-12-15T01:12:42.015Z,95.21
2022-12-15T01:15:29.346Z,95.26
2022-12-15T01:18:16.899Z,95.37
2022-12-15T01:20:45.652Z,95.44
2022-12-15T01:23:14.202Z,95.58
2022-12-15T01:25:42.758Z,95.54
2022-12-15T01:28:11.272Z,95.53
2022-12-15T01:30:39.884Z,95.72
2022-12-15T01:33:08.553Z,95.64
2022-12-15T01:35:37.040Z,95.73
2022-12-15T01:38:05.719Z,95.69
2022-12-15T01:40:47.328Z,95.80
2022-12-15T01:43:29.702Z,95.65
2022-12-15T01:46:10.325Z,95.90
2022-12-15T01:48:54.518Z,96.07
2022-12-15T01:51:35.478Z,96.32
2022-12-15T01:54:14.276Z,96.41
2022-12-15T01:56:52.796Z,96.52
2022-12-15T01:59:28.923Z,96.44
2022-12-15T02:01:57.553Z,96.32
2022-12-15T02:04:26.450Z,96.39
2022-12-15T02:06:54.966Z,96.45
2022-12-15T02:09:26.190Z,96.30
2022-12-15T02:12:33.293Z,96.13
2022-12-15T02:15:18.142Z,96.27
2022-12-15T02:18:20.699Z,96.28
2022-12-15T02:21:01.052Z,96.29
2022-12-15T02:24:19.696Z,96.41
2022-12-15T02:27:01.324Z,96.43
2022-12-15T02:30:03.679Z,96.17
2022-12-15T02:32:43.781Z,96.41
2022-12-15T02:35:48.307Z,96.41
2022-12-15T02:38:38.184Z,96.51
2022-12-15T02:41:32.925Z,96.56
2022-12-15T02:44:09.971Z,96.48
2022-12-15T02:46:55.064Z,96.51
2022-12-15T02:49:44.877Z,96.56
2022-12-15T02:52:36.497Z,96.54
2022-12-15T02:56:08.460Z,96.35
2022-12-15T02:58:43.639Z,96.42
2022-12-15T03:01:43.599Z,96.51
2022-12-15T03:04:13.263Z,96.43
2022-12-15T03:06:42.288Z,96.30
2022-12-15T03:09:10.995Z,96.33
2022-12-15T03:11:39.614Z,96.36
2022-12-15T03:14:08.175Z,96.27
2022-12-15T03:16:36.795Z,96.39
2022-12-15T03:19:05.401Z,96.25
2022-12-15T03:21:33.979Z,96.11
2022-12-15T03:24:02.542Z,95.93
2022-12-15T03:26:31.097Z,96.05
2022-12-15T03:28:59.672Z,95.87
2022-12-15T03:31:28.475Z,95.94
2022-12-15T03:33:57.474Z,95.93
2022-12-15T03:36:26.298Z,95.59
2022-12-15T03:38:54.781Z,95.65
2022-12-15T03:41:23.286Z,95.57
2022-12-15T03:43:51.858Z,95.54
2022-12-15T03:46:20.434Z,95.21
2022-12-15T03:48:49.026Z,95.08
2022-12-15T03:51:17.570Z,94.88
2022-12-15T03:53:48.546Z,94.68
2022-12-15T03:56:18.013Z,94.73
2022-12-15T03:58:47.080Z,94.84
2022-12-15T04:01:36.624Z,94.86
2022-12-15T04:04:05.725Z,94.81
2022-12-15T04:06:34.305Z,94.98
2022-12-15T04:09:02.913Z,95.12
2022-12-15T04:11:31.447Z,94.85
2022-12-15T04:13:59.986Z,94.75
2022-12-15T04:16:28.607Z,94.86
2022-12-15T04:19:15.788Z,94.87
2022-12-15T04:21:44.410Z,94.86
2022-12-15T04:24:31.616Z,94.97
2022-12-15T04:27:19.029Z,94.79
2022-12-15T04:30:05.975Z,94.91
2022-12-15T04:32:53.269Z,94.95
2022-12-15T04:35:40.385Z,95.01
2022-12-15T04:38:27.662Z,95.06
2022-12-15T04:41:14.854Z,95.19
2022-12-15T04:44:02.250Z,95.34
2022-12-15T04:46:49.602Z,95.29
2022-12-15T04:49:36.536Z,95.44
2022-12-15T04:52:23.875Z,95.44
2022-12-15T04:55:11.010Z,95.55
2022-12-15T04:57:58.402Z,95.56
2022-12-15T05:00:45.347Z,95.64
2022-12-15T05:03:33.139Z,95.73
2022-12-15T05:06:21.019Z,95.67
2022-12-15T05:09:08.292Z,95.64
2022-12-15T05:11:56.327Z,95.75
2022-12-15T05:14:43.540Z,95.64
2022-12-15T05:17:30.548Z,95.79
2022-12-15T05:20:17.598Z,95.67
2022-12-15T05:23:04.879Z,95.89
2022-12-15T05:25:52.241Z,95.89
2022-12-15T05:28:39.582Z,95.92
2022-12-15T05:31:27.620Z,95.99
2022-12-15T05:34:04.495Z,95.93
2022-12-15T05:36:34.044Z,95.96
2022-12-15T05:39:02.767Z,95.90
2022-12-15T05:41:31.292Z,95.81
2022-12-15T05:43:59.986Z,95.63
2022-12-15T05:46:28.568Z,95.67
2022-12-15T05:48:57.280Z,95.64
2022-12-15T05:51:25.805Z,95.63
2022-12-15T05:53:54.434Z,95.48
2022-12-15T05:56:23.057Z,95.43
2022-12-15T05:58:51.640Z,95.46
2022-12-15T06:01:20.391Z,95.53
2022-12-15T06:03:49.002Z,95.27
2022-12-15T06:06:18.674Z,95.11
2022-12-15T06:08:49.994Z,95.11
2022-12-15T06:11:20.506Z,94.94
2022-12-15T06:13:49.532Z,94.80
2022-12-15T06:16:23.488Z,94.54
2022-12-15T06:19:02.114Z,94.32
2022-12-15T06:21:36.524Z,94.14
2022-12-15T06:24:06.435Z,93.98
2022-12-15T06:26:40.092Z,94.04
2022-12-15T06:29:11.815Z,93.88
2022-12-15T06:31:41.377Z,93.93
2022-12-15T06:34:15.234Z,94.00
2022-12-15T06:36:44.325Z,93.92
2022-12-15T06:39:15.330Z,93.83
2022-12-15T06:41:44.339Z,93.71
2022-12-15T06:44:16.578Z,93.74
2022-12-15T06:46:46.582Z,93.77
2022-12-15T06:49:15.224Z,93.86
2022-12-15T06:51:45.073Z,93.73
2022-12-15T06:54:20.742Z,93.84
2022-12-15T06:56:51.568Z,93.98
2022-12-15T06:59:20.437Z,93.67
2022-12-15T07:01:49.448Z,93.19
2022-12-15T07:04:18.338Z,93.07
2022-12-15T07:06:46.979Z,92.93
2022-12-15T07:09:17.244Z,92.80
2022-12-15T07:11:46.545Z,92.72
2022-12-15T07:14:15.889Z,92.63
2022-12-15T07:16:45.658Z,92.72
2022-12-15T07:19:14.428Z,92.68
2022-12-15T07:21:43.427Z,92.79
2022-12-15T07:24:13.091Z,92.57
2022-12-15T07:26:42.060Z,92.69
2022-12-15T07:29:11.959Z,92.47
2022-12-15T07:31:40.717Z,92.38
2022-12-15T07:34:09.309Z,92.53
2022-12-15T07:36:38.607Z,92.41
2022-12-15T07:39:10.688Z,92.36
2022-12-15T07:41:40.521Z,92.29
2022-12-15T07:44:10.271Z,92.03
2022-12-15T07:46:38.855Z,91.99
2022-12-15T07:49:08.858Z,91.82
2022-12-15T07:51:37.429Z,91.76
2022-12-15T07:54:06.067Z,91.49
2022-12-15T07:56:39.167Z,91.48
2022-12-15T07:59:08.292Z,91.60
2022-12-15T08:01:37.063Z,91.42
2022-12-15T08:04:06.403Z,91.49
2022-12-15T08:06:35.032Z,91.50
2022-12-15T08:09:03.708Z,91.63
2022-12-15T08:11:35.232Z,91.72
2022-12-15T08:14:05.722Z,91.53
2022-12-15T08:16:36.965Z,91.41
2022-12-15T08:19:07.145Z,91.24
2022-12-15T08:21:35.827Z,91.25
2022-12-15T08:24:04.987Z,91.05
2022-12-15T08:26:33.634Z,90.91
2022-12-15T08:31:54.604Z,90.72
2022-12-15T08:34:23.299Z,90.33
2022-12-15T08:36:52.202Z,90.38
2022-12-15T08:39:20.938Z,90.22
2022-12-15T08:41:49.645Z,90.13
2022-12-15T08:44:18.269Z,90.13
2022-12-15T08:46:46.786Z,89.99
2022-12-15T08:49:21.217Z,89.91
2022-12-15T08:51:51.430Z,89.25
2022-12-15T08:54:21.392Z,89.06
2022-12-15T08:56:50.236Z,88.74
2022-12-15T08:59:19.491Z,88.89
2022-12-15T09:01:48.569Z,88.86
2022-12-15T09:04:17.905Z,88.78
2022-12-15T09:06:48.503Z,88.80
2022-12-15T09:09:20.288Z,88.87
2022-12-15T09:11:49.782Z,88.44
2022-12-15T09:14:22.755Z,88.73
2022-12-15T09:16:55.807Z,88.09
2022-12-15T09:19:25.353Z,87.80
2022-12-15T09:21:53.910Z,87.64
2022-12-15T09:24:34.044Z,86.97
2022-12-15T09:27:03.612Z,86.95
2022-12-15T09:29:32.872Z,86.19
2022-12-15T09:32:02.162Z,85.71
2022-12-15T09:34:30.815Z,85.34
2022-12-15T09:36:59.508Z,84.34
2022-12-15T09:39:28.199Z,84.19
2022-12-15T09:42:00.741Z,84.26
2022-12-15T09:44:32.790Z,84.11
2022-12-15T09:47:22.599Z,83.87
2022-12-15T09:50:01.194Z,83.54
2022-12-15T09:52:49.265Z,83.55
2022-12-15T09:55:27.499Z,83.51
2022-12-15T09:58:10.954Z,83.25
2022-12-15T10:00:58.255Z,82.96
2022-12-15T10:03:53.177Z,82.85
2022-12-15T10:06:33.512Z,82.93
2022-12-15T10:09:29.708Z,83.01
2022-12-15T10:12:22.197Z,82.98
2022-12-15T10:14:57.333Z,82.80
2022-12-15T10:17:50.283Z,82.13
2022-12-15T10:20:26.356Z,82.23
2022-12-15T10:23:01.455Z,82.54
2022-12-15T10:25:31.911Z,82.48
2022-12-15T10:29:07.554Z,82.32
2022-12-15T10:32:00.590Z,82.03
2022-12-15T10:34:33.575Z,81.67
2022-12-15T10:37:03.307Z,81.62
2022-12-15T10:39:44.433Z,81.13
2022-12-15T10:42:27.209Z,81.08
2022-12-15T10:44:59.219Z,80.94
2022-12-15T10:47:34.016Z,80.78
2022-12-15T10:50:25.031Z,80.57
2022-12-15T10:52:54.109Z,80.28
2022-12-15T10:55:43.815Z,80.22
2022-12-15T10:58:23.422Z,79.62
2022-12-15T11:01:21.836Z,78.86
2022-12-15T11:03:54.503Z,78.38
2022-12-15T11:06:27.343Z,78.61
2022-12-15T11:09:29.842Z,78.55
2022-12-15T11:12:17.320Z,78.70
2022-12-15T11:14:51.496Z,78.66
2022-12-15T11:17:24.093Z,78.52
2022-12-15T11:20:13.078Z,78.14
2022-12-15T11:22:57.371Z,78.00
2022-12-15T11:25:38.694Z,77.61
2022-12-15T11:28:16.613Z,77.47
2022-12-15T11:31:00.499Z,76.96
2022-12-15T11:33:29.390Z,76.73
2022-12-15T11:36:19.268Z,76.82
2022-12-15T11:39:04.928Z,76.53
2022-12-15T11:41:50.535Z,76.92
2022-12-15T11:44:33.762Z,77.21
2022-12-15T11:47:46.957Z,76.96
2022-12-15T11:50:31.405Z,76.50
2022-12-15T11:53:47.470Z,76.14
2022-12-15T11:56:56.044Z,76.33
2022-12-15T11:59:38.731Z,76.39
2022-12-15T12:02:31.896Z,76.58
2022-12-15T12:05:42.195Z,76.84
2022-12-15T12:08:22.454Z,76.83
2022-12-15T12:11:18.585Z,76.96
2022-12-15T12:14:12.781Z,76.98
2022-12-15T12:16:53.911Z,77.05
2022-12-15T12:19:33.646Z,77.16
2022-12-15T12:22:14.010Z,77.25
2022-12-15T12:25:20.929Z,77.26
2022-12-15T12:28:05.516Z,77.27
2022-12-15T12:30:44.541Z,77.36
2022-12-15T12:33:44.314Z,77.61
2022-12-15T12:36:16.369Z,77.55
2022-12-15T12:38:52.463Z,77.51
2022-12-15T12:41:48.499Z,77.67
2022-12-15T12:44:32.782Z,77.82
2022-12-15T12:47:31.913Z,77.88
2022-12-15T12:50:18.793Z,77.70
2022-12-15T12:53:23.836Z,78.06
2022-12-15T12:55:52.402Z,77.75
2022-12-15T12:58:48.576Z,78.21
2022-12-15T13:01:33.942Z,78.34
2022-12-15T13:04:08.193Z,78.27
2022-12-15T13:06:36.645Z,78.60
2022-12-15T13:09:17.435Z,78.60
2022-12-15T13:11:49.224Z,78.50
2022-12-15T13:14:44.944Z,78.28
2022-12-15T13:17:33.098Z,78.05
2022-12-15T13:20:01.580Z,78.21
2022-12-15T13:22:36.435Z,78.17
2022-12-15T13:25:38.166Z,78.00
2022-12-15T13:28:36.046Z,77.88
2022-12-15T13:31:16.804Z,77.98
2022-12-15T13:33:56.182Z,77.75
2022-12-15T13:36:39.726Z,77.96
2022-12-15T13:39:17.249Z,77.76
2022-12-15T13:42:23.740Z,77.69
2022-12-15T13:44:51.988Z,77.58
2022-12-15T13:47:28.084Z,77.72
2022-12-15T13:50:18.151Z,77.27
2022-12-15T13:56:05.733Z,77.02
2022-12-15T13:58:45.680Z,76.78
2022-12-15T14:01:33.583Z,76.87
2022-12-15T14:04:07.247Z,77.05
2022-12-15T14:06:40.757Z,76.93
2022-12-15T14:09:15.592Z,76.85
2022-12-15T14:11:53.128Z,76.76
2022-12-15T14:14:37.758Z,76.61
2022-12-15T14:17:15.418Z,76.47
2022-12-15T14:19:50.939Z,76.25
2022-12-15T14:22:28.470Z,76.43
2022-12-15T14:25:21.845Z,76.47
2022-12-15T14:27:51.275Z,76.65
2022-12-15T14:30:30.412Z,76.81
2022-12-15T14:33:19.405Z,77.05
2022-12-15T14:35:51.535Z,77.23
2022-12-15T14:38:32.363Z,77.35
2022-12-15T14:41:04.449Z,77.22
2022-12-15T14:43:39.752Z,77.30
2022-12-15T14:46:19.174Z,77.38
2022-12-15T14:49:03.245Z,77.63
2022-12-15T14:51:45.502Z,78.00
2022-12-15T14:54:38.328Z,78.38
2022-12-15T14:57:14.751Z,78.65
2022-12-15T14:59:46.341Z,78.73
2022-12-15T15:02:27.034Z,78.63
2022-12-15T15:05:24.261Z,78.30
2022-12-15T15:07:56.741Z,78.06
2022-12-15T15:10:30.122Z,77.95
2022-12-15T15:12:59.137Z,78.11
2022-12-15T15:15:28.034Z,78.10
2022-12-15T15:18:00.239Z,77.97
2022-12-15T15:20:36.026Z,77.81
2022-12-15T15:23:07.554Z,77.79
2022-12-15T15:25:53.959Z,77.78
2022-12-15T15:28:27.921Z,77.81
2022-12-15T15:31:06.955Z,77.96
2022-12-15T15:33:38.373Z,78.04
2022-12-15T15:36:10.906Z,77.88
2022-12-15T15:38:41.371Z,77.71
2022-12-15T15:41:18.779Z,77.80
2022-12-15T15:43:48.114Z,77.89
2022-12-15T15:46:21.848Z,78.21
2022-12-15T15:49:01.672Z,77.94
2022-12-15T15:51:32.180Z,77.79
2022-12-15T15:54:10.514Z,77.57
2022-12-15T15:56:39.310Z,77.78
2022-12-15T15:59:17.107Z,78.15
2022-12-15T16:01:50.139Z,78.24
2022-12-15T16:04:19.089Z,78.44
2022-12-15T16:06:48.988Z,78.44
2022-12-15T16:09:17.764Z,78.59
2022-12-15T16:11:46.707Z,79.04
2022-12-15T16:14:17.666Z,79.24
2022-12-15T16:16:46.344Z,79.74
2022-12-15T16:19:14.901Z,79.99
2022-12-15T16:21:43.835Z,80.45
2022-12-15T16:24:18.735Z,80.78
2022-12-15T16:26:50.673Z,80.97
2022-12-15T16:29:21.039Z,81.35
2022-12-15T16:31:49.849Z,81.35
2022-12-15T16:34:19.403Z,80.82
2022-12-15T16:36:48.168Z,80.39
2022-12-15T16:39:30.807Z,79.84
2022-12-15T16:41:59.956Z,80.09
2022-12-15T16:44:29.805Z,80.20
2022-12-15T16:46:59.050Z,79.64
2022-12-15T16:49:32.803Z,79.66
2022-12-15T16:52:12.062Z,80.25
2022-12-15T16:54:41.677Z,80.14
2022-12-15T16:57:12.094Z,80.40
2022-12-15T16:59:40.786Z,80.33
2022-12-15T17:02:29.196Z,80.39
2022-12-15T17:04:58.204Z,80.49
2022-12-15T17:07:28.217Z,80.52
2022-12-15T17:09:56.886Z,80.74
2022-12-15T17:12:25.754Z,80.76
2022-12-15T17:14:54.421Z,80.89
2022-12-15T17:17:23.026Z,80.61
2022-12-15T17:20:27.245Z,81.14
2022-12-15T17:22:41.209Z,81.33
2022-12-15T17:26:18.070Z,81.27
2022-12-15T17:28:32.548Z,81.41
2022-12-15T17:31:01.243Z,81.80
2022-12-15T17:33:34.084Z,81.63
2022-12-15T17:36:15.035Z,81.68
2022-12-15T17:38:43.725Z,81.79
2022-12-15T17:41:35.099Z,82.28
2022-12-15T17:44:31.630Z,82.54
2022-12-15T17:46:54.653Z,82.63
2022-12-15T17:49:23.374Z,82.81
2022-12-15T17:51:51.945Z,82.80
2022-12-15T17:54:21.029Z,82.54
2022-12-15T17:56:50.332Z,82.77
2022-12-15T17:59:23.143Z,83.06
2022-12-15T18:01:52.291Z,83.16
2022-12-15T18:04:21.055Z,83.45
2022-12-15T18:06:49.631Z,84.02
2022-12-15T18:09:21.040Z,84.47
2022-12-15T18:11:49.649Z,84.54
2022-12-15T18:14:21.391Z,84.42
2022-12-15T18:16:50.142Z,84.73
2022-12-15T18:19:18.758Z,84.93
2022-12-15T18:21:47.336Z,85.44
2022-12-15T18:24:19.323Z,85.22
2022-12-15T18:26:48.052Z,85.56
2022-12-15T18:29:18.377Z,85.44
2022-12-15T18:31:48.868Z,85.72
2022-12-15T18:34:21.403Z,85.73
2022-12-15T18:36:51.585Z,85.44
2022-12-15T18:39:23.837Z,85.58
2022-12-15T18:41:54.927Z,85.80
2022-12-15T18:44:27.672Z,85.87
2022-12-15T18:46:56.404Z,86.06
2022-12-15T18:49:25.069Z,86.03
2022-12-15T18:51:53.760Z,86.09
2022-12-15T18:54:24.649Z,86.00
2022-12-15T18:56:53.208Z,86.07
2022-12-15T18:59:23.562Z,85.60
2022-12-15T19:01:52.278Z,85.75
2022-12-15T19:04:20.893Z,85.57
2022-12-15T19:06:49.570Z,85.56
2022-12-15T19:09:23.222Z,86.05
2022-12-15T19:12:10.312Z,85.91
2022-12-15T19:14:41.685Z,85.87
2022-12-15T19:17:31.453Z,85.97
2022-12-15T19:20:19.520Z,85.54
2022-12-15T19:22:49.298Z,85.27
2022-12-15T19:25:26.560Z,84.91
2022-12-15T19:28:00.817Z,85.11
2022-12-15T19:30:41.585Z,85.06
2022-12-15T19:33:16.157Z,85.10
2022-12-15T19:35:51.022Z,85.13
2022-12-15T19:38:32.895Z,85.59
2022-12-15T19:41:01.464Z,85.50
2022-12-15T19:43:30.505Z,85.39
2022-12-15T19:45:59.746Z,85.44
2022-12-15T19:48:28.325Z,85.67
2022-12-15T19:50:56.880Z,85.87
2022-12-15T19:53:30.943Z,85.90
2022-12-15T19:56:01.616Z,85.80
2022-12-15T19:58:33.602Z,85.91
2022-12-15T20:01:14.806Z,86.02
2022-12-15T20:03:46.160Z,86.54
2022-12-15T20:06:26.995Z,86.57
2022-12-15T20:08:56.426Z,86.88
2022-12-15T20:11:31.512Z,86.98
2022-12-15T20:14:02.042Z,87.47
2022-12-15T20:16:30.731Z,87.60
2022-12-15T20:19:00.544Z,87.64
2022-12-15T20:21:34.561Z,87.87
2022-12-15T20:24:12.344Z,87.90
2022-12-15T20:26:42.908Z,87.73
2022-12-15T20:29:29.513Z,87.81
2022-12-15T20:31:59.755Z,87.52
2022-12-15T20:34:28.619Z,87.37
2022-12-15T20:36:57.323Z,87.15
2022-12-15T20:39:29.545Z,87.25
2022-12-15T20:41:58.477Z,87.39
2022-12-15T20:44:27.053Z,87.26
2022-12-15T20:46:55.679Z,87.73
2022-12-15T20:49:24.461Z,87.85
2022-12-15T20:51:53.024Z,87.85
2022-12-15T20:54:22.685Z,87.71
2022-12-15T20:56:51.251Z,87.64
2022-12-15T20:59:19.844Z,87.54
2022-12-15T21:01:48.600Z,87.20
2022-12-15T21:04:29.909Z,86.88
2022-12-15T21:06:58.833Z,87.12
2022-12-15T21:09:27.558Z,86.79
2022-12-15T21:11:56.191Z,87.02
2022-12-15T21:14:24.926Z,87.13
2022-12-15T21:16:53.653Z,87.23
2022-12-15T21:19:22.959Z,87.32
2022-12-15T21:21:55.231Z,87.62
2022-12-15T21:24:28.770Z,87.73
2022-12-15T21:26:57.467Z,87.80
2022-12-15T21:29:28.989Z,88.13
2022-12-15T21:31:57.491Z,88.13
2022-12-15T21:34:26.111Z,88.27
2022-12-15T21:36:55.606Z,88.23
2022-12-15T21:39:35.416Z,88.32
2022-12-15T21:42:12.811Z,88.46
2022-12-15T21:44:41.800Z,88.18
2022-12-15T21:47:47.140Z,88.10
2022-12-15T21:50:17.636Z,88.20
2022-12-15T21:52:47.532Z,88.27
2022-12-15T21:55:21.971Z,88.27
2022-12-15T21:57:50.519Z,88.38
2022-12-15T22:00:21.504Z,88.33
2022-12-15T22:02:52.889Z,88.26
2022-12-15T22:05:25.586Z,88.58
2022-12-15T22:07:54.130Z,88.81
2022-12-15T22:10:24.612Z,88.64
2022-12-15T22:12:59.353Z,88.54
2022-12-15T22:15:29.236Z,88.74
2022-12-15T22:17:57.869Z,89.07
2022-12-15T22:20:26.535Z,89.02
2022-12-15T22:22:55.113Z,88.95
2022-12-15T22:25:25.991Z,88.99
2022-12-15T22:27:54.734Z,89.22
2022-12-15T22:30:26.442Z,89.14
2022-12-15T22:32:55.064Z,89.12
2022-12-15T22:35:26.584Z,89.04
2022-12-15T22:37:56.169Z,89.04
2022-12-15T22:40:26.234Z,89.12
2022-12-15T22:42:57.943Z,89.14
2022-12-15T22:45:26.576Z,89.09
2022-12-15T22:47:55.360Z,89.16
2022-12-15T22:50:26.836Z,89.09
2022-12-15T22:52:55.417Z,89.25
2022-12-15T22:55:24.829Z,88.99
2022-12-15T22:58:01.459Z,89.04
2022-12-15T23:00:30.010Z,89.18
2022-12-15T23:02:59.184Z,89.21
2022-12-15T23:05:28.186Z,89.39
2022-12-15T23:07:56.931Z,89.42
2022-12-15T23:10:44.212Z,89.54
2022-12-15T23:13:12.809Z,89.93
2022-12-15T23:15:59.878Z,89.95
2022-12-15T23:18:28.513Z,90.02
2022-12-15T23:20:57.466Z,89.94
2022-12-15T23:23:27.905Z,89.95
2022-12-15T23:25:56.454Z,90.27
2022-12-15T23:28:25.666Z,90.29
2022-12-15T23:30:55.691Z,90.24
2022-12-15T23:33:27.340Z,90.37
2022-12-15T23:35:59.091Z,90.44
2022-12-15T23:38:28.847Z,90.55
2022-12-15T23:40:58.173Z,90.53
2022-12-15T23:43:30.744Z,90.64
2022-12-15T23:46:06.701Z,90.58
2022-12-15T23:48:41.495Z,90.66
2022-12-15T23:51:16.832Z,90.63
2022-12-15T23:53:47.899Z,91.01
2022-12-15T23:56:23.211Z,90.74
2022-12-15T23:58:56.315Z,90.75
